sensor_id;sensor_type;location;lat;lon;timestamp;pressure;altitude;pressure_sealevel;temperature;humidity
62418;BME280;48456;54.242;10.280;2023-07-13T00:01:50;101007.97;;;13.73;100.00
62418;BME280;48456;54.242;10.280;2023-07-13T00:04:18;101001.78;;;13.72;100.00
62418;BME280;48456;54.242;10.280;2023-07-13T00:06:45;101004.41;;;13.75;100.00
62418;BME280;48456;54.242;10.280;2023-07-13T00:09:13;101001.72;;;13.77;100.00
62418;BME280;48456;54.242;10.280;2023-07-13T00:11:40;101003.47;;;13.78;100.00
62418;BME280;48456;54.242;10.280;2023-07-13T00:14:07;101000.84;;;13.73;100.00
62418;BME280;48456;54.242;10.280;2023-07-13T00:16:34;101008.88;;;13.72;100.00
62418;BME280;48456;54.242;10.280;2023-07-13T00:19:00;101004.44;;;13.71;100.00
62418;BME280;48456;54.242;10.280;2023-07-13T00:21:27;101000.06;;;13.67;100.00
62418;BME280;48456;54.242;10.280;2023-07-13T00:23:53;101001.88;;;13.64;100.00
62418;BME280;48456;54.242;10.280;2023-07-13T00:26:19;101004.56;;;13.63;100.00
62418;BME280;48456;54.242;10.280;2023-07-13T00:28:46;100993.94;;;13.63;100.00
62418;BME280;48456;54.242;10.280;2023-07-13T00:31:13;100995.69;;;13.62;100.00
62418;BME280;48456;54.242;10.280;2023-07-13T00:33:41;100996.56;;;13.64;100.00
62418;BME280;48456;54.242;10.280;2023-07-13T00:36:09;101003.59;;;13.69;100.00
62418;BME280;48456;54.242;10.280;2023-07-13T00:38:37;101003.59;;;13.70;100.00
62418;BME280;48456;54.242;10.280;2023-07-13T00:41:03;100998.19;;;13.75;100.00
62418;BME280;48456;54.242;10.280;2023-07-13T00:43:30;100991.91;;;13.81;100.00
62418;BME280;48456;54.242;10.280;2023-07-13T00:46:14;100998.91;;;13.86;100.00
62418;BME280;48456;54.242;10.280;2023-07-13T00:48:41;100998.81;;;13.93;100.00
62418;BME280;48456;54.242;10.280;2023-07-13T00:51:09;100997.91;;;13.95;100.00
62418;BME280;48456;54.242;10.280;2023-07-13T00:53:36;100996.03;;;14.02;100.00
62418;BME280;48456;54.242;10.280;2023-07-13T00:56:03;100988.06;;;14.00;100.00
62418;BME280;48456;54.242;10.280;2023-07-13T00:58:29;100991.56;;;14.02;100.00
62418;BME280;48456;54.242;10.280;2023-07-13T01:00:56;100995.97;;;14.05;100.00
62418;BME280;48456;54.242;10.280;2023-07-13T01:03:23;100996.88;;;14.04;100.00
62418;BME280;48456;54.242;10.280;2023-07-13T01:05:50;100997.75;;;14.05;100.00
62418;BME280;48456;54.242;10.280;2023-07-13T01:08:17;100995.16;;;14.00;100.00
62418;BME280;48456;54.242;10.280;2023-07-13T01:10:51;100997.00;;;13.96;100.00
62418;BME280;48456;54.242;10.280;2023-07-13T01:13:17;100994.31;;;13.98;100.00
62418;BME280;48456;54.242;10.280;2023-07-13T01:15:45;100996.16;;;13.93;100.00
62418;BME280;48456;54.242;10.280;2023-07-13T01:18:29;101005.03;;;13.92;100.00
62418;BME280;48456;54.242;10.280;2023-07-13T01:23:22;100996.25;;;13.86;100.00
62418;BME280;48456;54.242;10.280;2023-07-13T01:25:51;100994.50;;;13.85;100.00
62418;BME280;48456;54.242;10.280;2023-07-13T01:28:17;100998.97;;;13.82;100.00
62418;BME280;48456;54.242;10.280;2023-07-13T01:30:44;101009.69;;;13.79;100.00
62418;BME280;48456;54.242;10.280;2023-07-13T01:33:12;101004.41;;;13.75;100.00
62418;BME280;48456;54.242;10.280;2023-07-13T01:35:39;101003.50;;;13.75;100.00
62418;BME280;48456;54.242;10.280;2023-07-13T01:38:06;101008.88;;;13.72;100.00
62418;BME280;48456;54.242;10.280;2023-07-13T01:40:34;101003.59;;;13.69;100.00
62418;BME280;48456;54.242;10.280;2023-07-13T01:43:01;101004.47;;;13.69;100.00
62418;BME280;48456;54.242;10.280;2023-07-13T01:45:28;101008.91;;;13.70;100.00
62418;BME280;48456;54.242;10.280;2023-07-13T01:47:55;101000.94;;;13.69;100.00
62418;BME280;48456;54.242;10.280;2023-07-13T01:50:21;101001.84;;;13.68;100.00
62418;BME280;48456;54.242;10.280;2023-07-13T01:52:47;101002.75;;;13.65;100.00
62418;BME280;48456;54.242;10.280;2023-07-13T01:55:14;100997.47;;;13.63;100.00
62418;BME280;48456;54.242;10.280;2023-07-13T01:57:40;101000.19;;;13.60;100.00
62418;BME280;48456;54.242;10.280;2023-07-13T02:00:08;100996.63;;;13.58;100.00
62418;BME280;48456;54.242;10.280;2023-07-13T02:02:35;100995.78;;;13.58;100.00
62418;BME280;48456;54.242;10.280;2023-07-13T02:05:02;100990.50;;;13.53;100.00
62418;BME280;48456;54.242;10.280;2023-07-13T02:07:28;100990.50;;;13.55;100.00
62418;BME280;48456;54.242;10.280;2023-07-13T02:09:55;100991.44;;;13.52;100.00
62418;BME280;48456;54.242;10.280;2023-07-13T02:12:21;100995.00;;;13.49;100.00
62418;BME280;48456;54.242;10.280;2023-07-13T02:14:47;100999.41;;;13.47;100.00
62418;BME280;48456;54.242;10.280;2023-07-13T02:17:14;101003.88;;;13.47;100.00
62418;BME280;48456;54.242;10.280;2023-07-13T02:19:40;101000.34;;;13.43;100.00
62418;BME280;48456;54.242;10.280;2023-07-13T02:22:07;100985.31;;;13.44;100.00
62418;BME280;48456;54.242;10.280;2023-07-13T02:24:33;100995.03;;;13.45;100.00
62418;BME280;48456;54.242;10.280;2023-07-13T02:27:00;100993.31;;;13.41;100.00
62418;BME280;48456;54.242;10.280;2023-07-13T02:29:26;100995.97;;;13.39;100.00
62418;BME280;48456;54.242;10.280;2023-07-13T02:31:53;100997.81;;;13.34;100.00
62418;BME280;48456;54.242;10.280;2023-07-13T02:34:19;100997.91;;;13.29;100.00
62418;BME280;48456;54.242;10.280;2023-07-13T02:36:45;100998.78;;;13.28;100.00
62418;BME280;48456;54.242;10.280;2023-07-13T02:39:12;100995.25;;;13.28;100.00
62418;BME280;48456;54.242;10.280;2023-07-13T02:41:39;100979.34;;;13.24;100.00
62418;BME280;48456;54.242;10.280;2023-07-13T02:44:06;100989.94;;;13.29;100.00
62418;BME280;48456;54.242;10.280;2023-07-13T02:46:35;100981.06;;;13.30;100.00
62418;BME280;48456;54.242;10.280;2023-07-13T02:49:02;100979.22;;;13.34;100.00
62418;BME280;48456;54.242;10.280;2023-07-13T02:51:29;100976.50;;;13.40;100.00
62418;BME280;48456;54.242;10.280;2023-07-13T02:53:55;100977.31;;;13.45;100.00
62418;BME280;48456;54.242;10.280;2023-07-13T02:56:22;100979.06;;;13.48;100.00
62418;BME280;48456;54.242;10.280;2023-07-13T02:58:49;100979.06;;;13.49;100.00
62418;BME280;48456;54.242;10.280;2023-07-13T03:01:15;100966.59;;;13.53;100.00
62418;BME280;48456;54.242;10.280;2023-07-13T03:03:45;100974.53;;;13.56;100.00
62418;BME280;48456;54.242;10.280;2023-07-13T03:06:12;100968.28;;;13.59;100.00
62418;BME280;48456;54.242;10.280;2023-07-13T03:08:39;100956.75;;;13.60;100.00
62418;BME280;48456;54.242;10.280;2023-07-13T03:11:17;100952.28;;;13.63;100.00
62418;BME280;48456;54.242;10.280;2023-07-13T03:13:44;100958.44;;;13.67;100.00
62418;BME280;48456;54.242;10.280;2023-07-13T03:16:10;100961.06;;;13.69;100.00
62418;BME280;48456;54.242;10.280;2023-07-13T03:18:40;100961.91;;;13.71;100.00
62418;BME280;48456;54.242;10.280;2023-07-13T03:21:06;100959.22;;;13.74;100.00
62418;BME280;48456;54.242;10.280;2023-07-13T03:23:33;100958.31;;;13.75;100.00
62418;BME280;48456;54.242;10.280;2023-07-13T03:26:03;100956.53;;;13.75;100.00
62418;BME280;48456;54.242;10.280;2023-07-13T03:28:30;100951.19;;;13.79;100.00
62418;BME280;48456;54.242;10.280;2023-07-13T03:31:04;100963.56;;;13.80;100.00
62418;BME280;48456;54.242;10.280;2023-07-13T03:33:31;100956.41;;;13.85;100.00
62418;BME280;48456;54.242;10.280;2023-07-13T03:35:57;100947.50;;;13.86;100.00
62418;BME280;48456;54.242;10.280;2023-07-13T03:38:24;100952.81;;;13.87;100.00
62418;BME280;48456;54.242;10.280;2023-07-13T03:40:50;100949.28;;;13.87;100.00
62418;BME280;48456;54.242;10.280;2023-07-13T03:43:17;100956.34;;;13.89;100.00
62418;BME280;48456;54.242;10.280;2023-07-13T03:45:44;100958.97;;;13.91;100.00
62418;BME280;48456;54.242;10.280;2023-07-13T03:48:10;100966.91;;;13.93;100.00
62418;BME280;48456;54.242;10.280;2023-07-13T03:50:37;100971.34;;;13.94;100.00
62418;BME280;48456;54.242;10.280;2023-07-13T03:53:04;100971.31;;;13.95;100.00
62418;BME280;48456;54.242;10.280;2023-07-13T03:55:31;100965.09;;;13.96;100.00
62418;BME280;48456;54.242;10.280;2023-07-13T03:57:58;100972.16;;;13.97;100.00
62418;BME280;48456;54.242;10.280;2023-07-13T04:00:24;100975.66;;;13.99;100.00
62418;BME280;48456;54.242;10.280;2023-07-13T04:02:51;100981.84;;;14.01;100.00
62418;BME280;48456;54.242;10.280;2023-07-13T04:05:18;100978.25;;;14.04;100.00
62418;BME280;48456;54.242;10.280;2023-07-13T04:07:44;100973.75;;;14.08;100.00
62418;BME280;48456;54.242;10.280;2023-07-13T04:10:11;100976.41;;;14.09;100.00
62418;BME280;48456;54.242;10.280;2023-07-13T04:12:37;100984.34;;;14.12;100.00
62418;BME280;48456;54.242;10.280;2023-07-13T04:15:04;100986.06;;;14.15;100.00
62418;BME280;48456;54.242;10.280;2023-07-13T04:17:30;100986.00;;;14.20;100.00
62418;BME280;48456;54.242;10.280;2023-07-13T04:19:57;100983.31;;;14.21;100.00
62418;BME280;48456;54.242;10.280;2023-07-13T04:22:23;100985.97;;;14.21;100.00
62418;BME280;48456;54.242;10.280;2023-07-13T04:24:49;100985.06;;;14.22;100.00
62418;BME280;48456;54.242;10.280;2023-07-13T04:27:16;100985.03;;;14.24;100.00
62418;BME280;48456;54.242;10.280;2023-07-13T04:29:42;100986.84;;;14.22;100.00
62418;BME280;48456;54.242;10.280;2023-07-13T04:32:09;100994.81;;;14.22;100.00
62418;BME280;48456;54.242;10.280;2023-07-13T04:34:35;100990.38;;;14.24;100.00
62418;BME280;48456;54.242;10.280;2023-07-13T04:37:01;100995.66;;;14.25;100.00
62418;BME280;48456;54.242;10.280;2023-07-13T04:39:28;100987.56;;;14.32;100.00
62418;BME280;48456;54.242;10.280;2023-07-13T04:41:54;100990.16;;;14.36;100.00
62418;BME280;48456;54.242;10.280;2023-07-13T04:44:22;100985.66;;;14.40;100.00
62418;BME280;48456;54.242;10.280;2023-07-13T04:46:48;100973.16;;;14.43;100.00
62418;BME280;48456;54.242;10.280;2023-07-13T04:49:14;100980.16;;;14.49;100.00
62418;BME280;48456;54.242;10.280;2023-07-13T04:51:41;100984.44;;;14.60;100.00
62418;BME280;48456;54.242;10.280;2023-07-13T04:54:07;100987.78;;;14.69;100.00
62418;BME280;48456;54.242;10.280;2023-07-13T04:56:34;100990.31;;;14.79;100.00
62418;BME280;48456;54.242;10.280;2023-07-13T04:59:00;100985.66;;;14.90;100.00
62418;BME280;48456;54.242;10.280;2023-07-13T05:01:27;100985.44;;;15.01;100.00
62418;BME280;48456;54.242;10.280;2023-07-13T05:03:53;100987.03;;;15.10;100.00
62418;BME280;48456;54.242;10.280;2023-07-13T05:06:21;100992.13;;;15.23;100.00
62418;BME280;48456;54.242;10.280;2023-07-13T05:08:48;101002.66;;;15.29;100.00
62418;BME280;48456;54.242;10.280;2023-07-13T05:11:14;101007.66;;;15.44;100.00
62418;BME280;48456;54.242;10.280;2023-07-13T05:13:40;101005.66;;;15.56;100.00
62418;BME280;48456;54.242;10.280;2023-07-13T05:16:07;101001.75;;;15.71;100.00
62418;BME280;48456;54.242;10.280;2023-07-13T05:21:16;101004.94;;;15.87;100.00
62418;BME280;48456;54.242;10.280;2023-07-13T05:23:42;101005.69;;;15.94;100.00
62418;BME280;48456;54.242;10.280;2023-07-13T05:26:09;101002.69;;;16.09;100.00
62418;BME280;48456;54.242;10.280;2023-07-13T05:28:35;101011.03;;;16.32;100.00
62418;BME280;48456;54.242;10.280;2023-07-13T05:31:02;101007.19;;;16.44;100.00
62418;BME280;48456;54.242;10.280;2023-07-13T05:33:29;101011.88;;;16.69;100.00
62418;BME280;48456;54.242;10.280;2023-07-13T05:35:55;101012.03;;;16.96;100.00
62418;BME280;48456;54.242;10.280;2023-07-13T05:38:22;101017.78;;;17.15;100.00
62418;BME280;48456;54.242;10.280;2023-07-13T05:40:49;101017.63;;;17.21;100.00
62418;BME280;48456;54.242;10.280;2023-07-13T05:43:16;101022.53;;;17.35;100.00
62418;BME280;48456;54.242;10.280;2023-07-13T05:45:42;101014.44;;;17.38;100.00
62418;BME280;48456;54.242;10.280;2023-07-13T05:48:09;101022.84;;;17.24;100.00
62418;BME280;48456;54.242;10.280;2023-07-13T05:50:35;101025.78;;;17.15;100.00
62418;BME280;48456;54.242;10.280;2023-07-13T05:53:01;101031.66;;;16.95;100.00
62418;BME280;48456;54.242;10.280;2023-07-13T05:55:28;101033.03;;;16.76;100.00
62418;BME280;48456;54.242;10.280;2023-07-13T05:57:54;101037.59;;;16.73;100.00
62418;BME280;48456;54.242;10.280;2023-07-13T06:00:21;101034.78;;;16.78;100.00
62418;BME280;48456;54.242;10.280;2023-07-13T06:02:49;101031.38;;;16.72;100.00
62418;BME280;48456;54.242;10.280;2023-07-13T06:05:15;101032.31;;;16.70;100.00
62418;BME280;48456;54.242;10.280;2023-07-13T06:07:42;101036.03;;;16.64;100.00
62418;BME280;48456;54.242;10.280;2023-07-13T06:10:09;101036.66;;;16.74;100.00
62418;BME280;48456;54.242;10.280;2023-07-13T06:12:35;101030.25;;;16.81;100.00
62418;BME280;48456;54.242;10.280;2023-07-13T06:15:02;101036.56;;;16.79;100.00
62418;BME280;48456;54.242;10.280;2023-07-13T06:17:29;101026.72;;;16.79;100.00
62418;BME280;48456;54.242;10.280;2023-07-13T06:19:55;101025.88;;;16.79;100.00
62418;BME280;48456;54.242;10.280;2023-07-13T06:22:22;101028.44;;;16.82;100.00
62418;BME280;48456;54.242;10.280;2023-07-13T06:24:48;101028.66;;;16.74;100.00
62418;BME280;48456;54.242;10.280;2023-07-13T06:27:15;101018.91;;;16.73;100.00
62418;BME280;48456;54.242;10.280;2023-07-13T06:29:42;101026.81;;;16.76;100.00
62418;BME280;48456;54.242;10.280;2023-07-13T06:32:11;101023.91;;;16.85;100.00
62418;BME280;48456;54.242;10.280;2023-07-13T06:34:37;101028.81;;;17.01;100.00
62418;BME280;48456;54.242;10.280;2023-07-13T06:37:07;101031.31;;;17.09;100.00
62418;BME280;48456;54.242;10.280;2023-07-13T06:39:33;101037.41;;;17.46;100.00
62418;BME280;48456;54.242;10.280;2023-07-13T06:42:00;101038.38;;;17.73;100.00
62418;BME280;48456;54.242;10.280;2023-07-13T06:44:26;101048.25;;;18.00;100.00
62418;BME280;48456;54.242;10.280;2023-07-13T06:46:53;101046.38;;;18.03;100.00
62418;BME280;48456;54.242;10.280;2023-07-13T06:49:19;101042.84;;;18.01;100.00
62418;BME280;48456;54.242;10.280;2023-07-13T06:51:46;101044.84;;;17.95;100.00
62418;BME280;48456;54.242;10.280;2023-07-13T06:54:13;101047.06;;;18.10;100.00
62418;BME280;48456;54.242;10.280;2023-07-13T06:56:39;101051.50;;;18.11;100.00
62418;BME280;48456;54.242;10.280;2023-07-13T06:59:05;101050.88;;;18.01;100.00
62418;BME280;48456;54.242;10.280;2023-07-13T07:01:32;101055.53;;;17.95;100.00
62418;BME280;48456;54.242;10.280;2023-07-13T07:03:58;101057.63;;;17.85;100.00
62418;BME280;48456;54.242;10.280;2023-07-13T07:06:25;101053.03;;;17.90;100.00
62418;BME280;48456;54.242;10.280;2023-07-13T07:08:51;101052.88;;;17.95;100.00
62418;BME280;48456;54.242;10.280;2023-07-13T07:11:19;101059.56;;;18.10;100.00
62418;BME280;48456;54.242;10.280;2023-07-13T07:13:46;101044.06;;;18.21;100.00
62418;BME280;48456;54.242;10.280;2023-07-13T07:16:12;101042.31;;;18.47;100.00
62418;BME280;48456;54.242;10.280;2023-07-13T07:18:39;101043.41;;;18.68;100.00
62418;BME280;48456;54.242;10.280;2023-07-13T07:21:05;101049.03;;;18.59;100.00
62418;BME280;48456;54.242;10.280;2023-07-13T07:23:32;101045.13;;;18.42;100.00
62418;BME280;48456;54.242;10.280;2023-07-13T07:25:58;101041.94;;;18.31;100.00
62418;BME280;48456;54.242;10.280;2023-07-13T07:28:25;101043.25;;;18.46;100.00
62418;BME280;48456;54.242;10.280;2023-07-13T07:30:55;101038.50;;;18.54;100.00
62418;BME280;48456;54.242;10.280;2023-07-13T07:33:25;101031.47;;;18.77;100.00
62418;BME280;48456;54.242;10.280;2023-07-13T07:35:52;101041.38;;;19.01;100.00
62418;BME280;48456;54.242;10.280;2023-07-13T07:38:21;101038.38;;;19.10;100.00
62418;BME280;48456;54.242;10.280;2023-07-13T07:40:51;101046.25;;;19.15;100.00
62418;BME280;48456;54.242;10.280;2023-07-13T07:43:20;101034.56;;;19.41;100.00
62418;BME280;48456;54.242;10.280;2023-07-13T07:45:47;101033.00;;;19.35;100.00
62418;BME280;48456;54.242;10.280;2023-07-13T07:48:13;101035.84;;;19.55;100.00
62418;BME280;48456;54.242;10.280;2023-07-13T07:50:40;101039.13;;;19.63;100.00
62418;BME280;48456;54.242;10.280;2023-07-13T07:53:07;101040.13;;;19.83;100.00
62418;BME280;48456;54.242;10.280;2023-07-13T07:55:34;101040.78;;;20.12;100.00
62418;BME280;48456;54.242;10.280;2023-07-13T07:58:04;101029.50;;;20.26;100.00
62418;BME280;48456;54.242;10.280;2023-07-13T08:00:51;101037.44;;;20.07;100.00
62418;BME280;48456;54.242;10.280;2023-07-13T08:03:20;101036.88;;;19.97;100.00
62418;BME280;48456;54.242;10.280;2023-07-13T08:05:52;101032.72;;;19.90;100.00
62418;BME280;48456;54.242;10.280;2023-07-13T08:08:38;101036.84;;;19.52;100.00
62418;BME280;48456;54.242;10.280;2023-07-13T08:11:05;101045.22;;;19.67;100.00
62418;BME280;48456;54.242;10.280;2023-07-13T08:13:36;101045.16;;;19.68;100.00
62418;BME280;48456;54.242;10.280;2023-07-13T08:16:04;101032.53;;;19.94;100.00
62418;BME280;48456;54.242;10.280;2023-07-13T08:18:30;101042.97;;;20.02;100.00
62418;BME280;48456;54.242;10.280;2023-07-13T08:20:57;101035.91;;;19.99;100.00
62418;BME280;48456;54.242;10.280;2023-07-13T08:23:25;101029.16;;;19.89;100.00
62418;BME280;48456;54.242;10.280;2023-07-13T08:25:52;101016.41;;;20.18;100.00
62418;BME280;48456;54.242;10.280;2023-07-13T08:28:22;101024.63;;;20.36;100.00
62418;BME280;48456;54.242;10.280;2023-07-13T08:30:48;101011.84;;;20.41;100.00
62418;BME280;48456;54.242;10.280;2023-07-13T08:33:15;101012.47;;;20.48;100.00
62418;BME280;48456;54.242;10.280;2023-07-13T08:35:42;101022.69;;;20.60;100.00
62418;BME280;48456;54.242;10.280;2023-07-13T08:38:11;101017.72;;;20.72;100.00
62418;BME280;48456;54.242;10.280;2023-07-13T08:40:37;101023.31;;;20.88;100.00
62418;BME280;48456;54.242;10.280;2023-07-13T08:43:06;101024.06;;;20.92;100.00
62418;BME280;48456;54.242;10.280;2023-07-13T08:48:10;101023.13;;;21.13;100.00
62418;BME280;48456;54.242;10.280;2023-07-13T08:50:51;101026.16;;;21.25;100.00
62418;BME280;48456;54.242;10.280;2023-07-13T08:53:29;101028.94;;;21.42;100.00
62418;BME280;48456;54.242;10.280;2023-07-13T08:55:59;101024.59;;;21.59;100.00
62418;BME280;48456;54.242;10.280;2023-07-13T08:58:26;101036.88;;;21.65;100.00
62418;BME280;48456;54.242;10.280;2023-07-13T09:01:08;101036.03;;;22.03;100.00
62418;BME280;48456;54.242;10.280;2023-07-13T09:03:38;101025.28;;;22.20;100.00
62418;BME280;48456;54.242;10.280;2023-07-13T09:06:06;101025.78;;;22.46;100.00
62418;BME280;48456;54.242;10.280;2023-07-13T09:08:50;101038.16;;;22.51;100.00
62418;BME280;48456;54.242;10.280;2023-07-13T09:16:29;101020.19;;;22.87;100.00
62418;BME280;48456;54.242;10.280;2023-07-13T09:18:56;101032.81;;;22.68;100.00
62418;BME280;48456;54.242;10.280;2023-07-13T09:21:32;101037.34;;;22.31;100.00
62418;BME280;48456;54.242;10.280;2023-07-13T09:26:43;101054.03;;;21.43;100.00
62418;BME280;48456;54.242;10.280;2023-07-13T09:29:12;101060.38;;;21.02;100.00
62418;BME280;48456;54.242;10.280;2023-07-13T09:31:44;101050.22;;;20.65;100.00
62418;BME280;48456;54.242;10.280;2023-07-13T09:34:13;101056.41;;;20.47;100.00
62418;BME280;48456;54.242;10.280;2023-07-13T09:36:39;101053.66;;;20.48;100.00
62418;BME280;48456;54.242;10.280;2023-07-13T09:39:11;101061.03;;;20.43;100.00
62418;BME280;48456;54.242;10.280;2023-07-13T09:44:29;101053.00;;;20.21;100.00
62418;BME280;48456;54.242;10.280;2023-07-13T09:46:57;101046.78;;;20.41;100.00
62418;BME280;48456;54.242;10.280;2023-07-13T09:49:24;101055.56;;;20.45;100.00
62418;BME280;48456;54.242;10.280;2023-07-13T09:52:02;101050.03;;;20.27;100.00
62418;BME280;48456;54.242;10.280;2023-07-13T09:54:32;101053.06;;;20.62;100.00
62418;BME280;48456;54.242;10.280;2023-07-13T09:56:59;101045.47;;;20.51;100.00
62418;BME280;48456;54.242;10.280;2023-07-13T10:00:18;101047.28;;;20.72;100.00
62418;BME280;48456;54.242;10.280;2023-07-13T10:02:22;101046.44;;;21.13;100.00
62418;BME280;48456;54.242;10.280;2023-07-13T10:04:53;101039.06;;;21.37;100.00
62418;BME280;48456;54.242;10.280;2023-07-13T10:07:22;101038.50;;;21.69;100.00
62418;BME280;48456;54.242;10.280;2023-07-13T10:10:00;101033.56;;;21.79;100.00
62418;BME280;48456;54.242;10.280;2023-07-13T10:12:28;101028.53;;;21.71;100.00
62418;BME280;48456;54.242;10.280;2023-07-13T10:14:59;101038.72;;;21.64;100.00
62418;BME280;48456;54.242;10.280;2023-07-13T10:17:46;101041.09;;;22.09;100.00
62418;BME280;48456;54.242;10.280;2023-07-13T10:20:13;101041.28;;;22.24;100.00
62418;BME280;48456;54.242;10.280;2023-07-13T10:22:44;101056.41;;;22.45;100.00
62418;BME280;48456;54.242;10.280;2023-07-13T10:25:15;101088.16;;;21.62;100.00
62418;BME280;48456;54.242;10.280;2023-07-13T10:27:43;101109.47;;;20.42;100.00
62418;BME280;48456;54.242;10.280;2023-07-13T10:30:29;101101.91;;;18.54;100.00
62418;BME280;48456;54.242;10.280;2023-07-13T10:33:01;101100.28;;;16.93;100.00
62418;BME280;48456;54.242;10.280;2023-07-13T10:35:29;101098.28;;;16.30;100.00
62418;BME280;48456;54.242;10.280;2023-07-13T10:37:57;101108.66;;;16.04;100.00
62418;BME280;48456;54.242;10.280;2023-07-13T10:40:28;101110.66;;;15.94;100.00
62418;BME280;48456;54.242;10.280;2023-07-13T10:42:56;101111.06;;;16.15;100.00
62418;BME280;48456;54.242;10.280;2023-07-13T10:45:25;101126.69;;;16.32;100.00
62418;BME280;48456;54.242;10.280;2023-07-13T10:47:53;101119.44;;;16.75;100.00
62418;BME280;48456;54.242;10.280;2023-07-13T10:50:23;101119.94;;;17.90;100.00
62418;BME280;48456;54.242;10.280;2023-07-13T10:52:52;101110.44;;;18.67;100.00
62418;BME280;48456;54.242;10.280;2023-07-13T10:55:54;101103.50;;;19.14;100.00
62418;BME280;48456;54.242;10.280;2023-07-13T10:58:22;101098.50;;;19.54;100.00
62418;BME280;48456;54.242;10.280;2023-07-13T11:00:56;101112.25;;;19.92;100.00
62418;BME280;48456;54.242;10.280;2023-07-13T11:03:24;101106.00;;;19.68;100.00
62418;BME280;48456;54.242;10.280;2023-07-13T11:21:13;101106.34;;;23.75;100.00
62418;BME280;48456;54.242;10.280;2023-07-13T11:24:01;101117.72;;;24.46;100.00
62418;BME280;48456;54.242;10.280;2023-07-13T11:26:41;101110.69;;;24.90;100.00
62418;BME280;48456;54.242;10.280;2023-07-13T11:31:41;101112.19;;;25.25;100.00
62418;BME280;48456;54.242;10.280;2023-07-13T11:34:13;101112.00;;;25.43;100.00
62418;BME280;48456;54.242;10.280;2023-07-13T11:36:44;101110.69;;;25.65;100.00
62418;BME280;48456;54.242;10.280;2023-07-13T11:42:13;101114.25;;;26.22;100.00
62418;BME280;48456;54.242;10.280;2023-07-13T11:44:45;101123.97;;;26.12;100.00
62418;BME280;48456;54.242;10.280;2023-07-13T11:47:32;101119.09;;;26.59;100.00
62418;BME280;48456;54.242;10.280;2023-07-13T11:49:58;101108.00;;;26.90;100.00
62418;BME280;48456;54.242;10.280;2023-07-13T11:52:28;101112.66;;;26.88;100.00
62418;BME280;48456;54.242;10.280;2023-07-13T11:54:58;101110.31;;;26.96;100.00
62418;BME280;48456;54.242;10.280;2023-07-13T11:59:57;101115.63;;;27.49;100.00
62418;BME280;48456;54.242;10.280;2023-07-13T12:02:29;101123.47;;;27.41;100.00
62418;BME280;48456;54.242;10.280;2023-07-13T12:04:56;101112.06;;;27.75;100.00
62418;BME280;48456;54.242;10.280;2023-07-13T12:07:23;101110.34;;;27.74;100.00
62418;BME280;48456;54.242;10.280;2023-07-13T12:09:50;101110.53;;;27.58;100.00
62418;BME280;48456;54.242;10.280;2023-07-13T12:12:21;101115.19;;;27.95;100.00
62418;BME280;48456;54.242;10.280;2023-07-13T12:14:51;101122.78;;;27.89;100.00
62418;BME280;48456;54.242;10.280;2023-07-13T12:17:19;101117.81;;;27.18;100.00
62418;BME280;48456;54.242;10.280;2023-07-13T12:19:47;101121.59;;;26.20;100.00
62418;BME280;48456;54.242;10.280;2023-07-13T12:22:14;101115.19;;;25.79;100.00
62418;BME280;48456;54.242;10.280;2023-07-13T12:24:42;101103.66;;;25.90;100.00
62418;BME280;48456;54.242;10.280;2023-07-13T12:27:23;101119.53;;;26.53;100.00
62418;BME280;48456;54.242;10.280;2023-07-13T12:29:51;101106.81;;;26.94;100.00
62418;BME280;48456;54.242;10.280;2023-07-13T12:32:19;101114.16;;;26.92;100.00
62418;BME280;48456;54.242;10.280;2023-07-13T12:34:53;101105.03;;;27.20;100.00
62418;BME280;48456;54.242;10.280;2023-07-13T12:37:20;101108.69;;;27.58;100.00
62418;BME280;48456;54.242;10.280;2023-07-13T12:39:47;101115.13;;;28.08;94.65
62418;BME280;48456;54.242;10.280;2023-07-13T12:44:43;101108.25;;;27.52;93.75
62418;BME280;48456;54.242;10.280;2023-07-13T12:47:11;101113.59;;;28.17;88.48
62418;BME280;48456;54.242;10.280;2023-07-13T12:49:58;101134.81;;;28.49;73.10
62418;BME280;48456;54.242;10.280;2023-07-13T12:52:29;101129.84;;;29.03;73.80
62418;BME280;48456;54.242;10.280;2023-07-13T12:55:07;101134.34;;;28.55;73.79
62418;BME280;48456;54.242;10.280;2023-07-13T12:57:41;101137.94;;;27.42;83.53
62418;BME280;48456;54.242;10.280;2023-07-13T13:00:19;101147.81;;;26.49;92.87
62418;BME280;48456;54.242;10.280;2023-07-13T13:02:49;101138.13;;;25.44;100.00
62418;BME280;48456;54.242;10.280;2023-07-13T13:05:16;101150.69;;;24.21;100.00
62418;BME280;48456;54.242;10.280;2023-07-13T13:07:43;101149.84;;;24.02;100.00
62418;BME280;48456;54.242;10.280;2023-07-13T13:10:12;101157.41;;;23.64;100.00
62418;BME280;48456;54.242;10.280;2023-07-13T13:12:40;101148.91;;;23.54;100.00
62418;BME280;48456;54.242;10.280;2023-07-13T13:15:09;101144.13;;;23.59;100.00
62418;BME280;48456;54.242;10.280;2023-07-13T13:17:36;101157.72;;;24.07;100.00
62418;BME280;48456;54.242;10.280;2023-07-13T13:20:04;101163.84;;;24.75;100.00
62418;BME280;48456;54.242;10.280;2023-07-13T13:22:32;101158.00;;;24.51;100.00